PWSweather.com
Personal Weather Stations
Station Observations
BWSWX1
Teesside, BillinghamGB TS23 1DL

TeessideBillinghamGB TS23 1DL

Lat: 54.588219, Lon: -1.289528

Elevation: 39

Station Type: Davis Vantage Pro2 Plus

http://billinghamweather.com/index.php

Latest ConditionsUpdated 9:40:01 AM GMT Monday, Jul 23, 2018
Currently Today's Max Today's Min Today's Average
Temperature 71.2°F21.8°C 71.2°F21.8°C 63.0°F17.2°C 66.4°F19.1°C
Dew Point 65.1°F18.4°C 65.3°F18.5°C 60.0°F15.6°C 62.2°F16.8°C
Winds 2.3 mph S3.7 kmh S 5.8 mph -9.3 kmh - - 1.9 mph 3.1 kmh
Wind Gusts 3.5 mph5.6 kmh 9.2 mph14.8 kmh - -
Humidity 81% 92% 80% 86%
Pressure 29.93 in1013.5 mb 29.95 in1014.2 mb 29.93 in1013.5 mb -
Hour Temp Dew Point Humidity Winds Wind Gusts Pressure Precip Precip Rate Daily Precip Total
09:40 AM 71.2°F21.8°C 65.1°F18.4°C 81% 2.3 mph S3.7 kmh S 3.5 mph5.6 kmh 29.93 in1013.5 mb - 0.00 in0.0 mm 0.00 in0.0 mm
09:30 AM 70.5°F21.4°C 65.1°F18.4°C 83% 1.2 mph SW1.9 kmh SW 3.5 mph5.6 kmh 29.93 in1013.5 mb - 0.00 in0.0 mm 0.00 in0.0 mm
09:20 AM 70.0°F21.1°C 64.9°F18.3°C 84% 1.2 mph SW1.9 kmh SW 2.3 mph3.7 kmh 29.93 in1013.5 mb - 0.00 in0.0 mm 0.00 in0.0 mm
09:10 AM 70.1°F21.2°C 64.7°F18.2°C 83% 2.3 mph SSW3.7 kmh SSW 3.5 mph5.6 kmh 29.93 in1013.5 mb - 0.00 in0.0 mm 0.00 in0.0 mm
09:00 AM 70.6°F21.4°C 65.2°F18.4°C 83% 2.3 mph S3.7 kmh S 5.8 mph9.3 kmh 29.93 in1013.5 mb - 0.00 in0.0 mm 0.00 in0.0 mm
08:50 AM 70.7°F21.5°C 65.3°F18.5°C 83% 2.3 mph SW3.7 kmh SW 5.8 mph9.3 kmh 29.93 in1013.5 mb - 0.00 in0.0 mm 0.00 in0.0 mm
08:40 AM 70.6°F21.4°C 64.8°F18.2°C 82% 1.2 mph S1.9 kmh S 6.9 mph11.1 kmh 29.94 in1013.9 mb - 0.00 in0.0 mm 0.00 in0.0 mm
08:30 AM 70.4°F21.3°C 63.9°F17.7°C 80% 2.3 mph SW3.7 kmh SW 3.5 mph5.6 kmh 29.93 in1013.5 mb - 0.00 in0.0 mm 0.00 in0.0 mm
08:20 AM 70.3°F21.3°C 63.9°F17.7°C 80% 3.5 mph SW5.6 kmh SW 5.8 mph9.3 kmh 29.93 in1013.5 mb - 0.00 in0.0 mm 0.00 in0.0 mm
08:10 AM 70.4°F21.3°C 63.9°F17.7°C 80% 3.5 mph SSW5.6 kmh SSW 3.5 mph5.6 kmh 29.94 in1013.9 mb - 0.00 in0.0 mm 0.00 in0.0 mm
08:00 AM 70.4°F21.3°C 64.3°F17.9°C 81% 2.3 mph SSW3.7 kmh SSW 3.5 mph5.6 kmh 29.93 in1013.5 mb - 0.00 in0.0 mm 0.00 in0.0 mm
07:50 AM 70.2°F21.2°C 64.4°F18.0°C 82% 3.5 mph SW5.6 kmh SW 6.9 mph11.1 kmh 29.93 in1013.5 mb - 0.00 in0.0 mm 0.00 in0.0 mm
07:40 AM 69.8°F21.0°C 64.4°F18.0°C 83% 2.3 mph SW3.7 kmh SW 4.6 mph7.4 kmh 29.93 in1013.5 mb - 0.00 in0.0 mm 0.00 in0.0 mm
07:30 AM 69.5°F20.8°C 64.1°F17.8°C 83% 2.3 mph SW3.7 kmh SW 3.5 mph5.6 kmh 29.93 in1013.5 mb - 0.00 in0.0 mm 0.00 in0.0 mm
07:20 AM 69.2°F20.7°C 63.8°F17.7°C 83% 3.5 mph SW5.6 kmh SW 3.5 mph5.6 kmh 29.93 in1013.5 mb - 0.00 in0.0 mm 0.00 in0.0 mm
07:10 AM 69.0°F20.6°C 63.6°F17.6°C 83% 3.5 mph WSW5.6 kmh WSW 5.8 mph9.3 kmh 29.93 in1013.5 mb - 0.00 in0.0 mm 0.00 in0.0 mm
07:00 AM 68.9°F20.5°C 63.8°F17.7°C 84% 4.6 mph WSW7.4 kmh WSW 8.1 mph13.0 kmh 29.93 in1013.5 mb - 0.00 in0.0 mm 0.00 in0.0 mm
06:50 AM 68.2°F20.1°C 63.9°F17.7°C 86% 5.8 mph WSW9.3 kmh WSW 9.2 mph14.8 kmh 29.93 in1013.5 mb - 0.00 in0.0 mm 0.00 in0.0 mm
06:40 AM 67.4°F19.7°C 63.4°F17.4°C 87% 3.5 mph WSW5.6 kmh WSW 8.1 mph13.0 kmh 29.93 in1013.5 mb - 0.00 in0.0 mm 0.00 in0.0 mm
06:30 AM 67.1°F19.5°C 63.5°F17.5°C 88% 2.3 mph WSW3.7 kmh WSW 3.5 mph5.6 kmh 29.93 in1013.5 mb - 0.00 in0.0 mm 0.00 in0.0 mm
06:20 AM 66.6°F19.2°C 63.2°F17.3°C 89% 2.3 mph SW3.7 kmh SW 5.8 mph9.3 kmh 29.93 in1013.5 mb - 0.00 in0.0 mm 0.00 in0.0 mm
06:10 AM 66.0°F18.9°C 62.6°F17.0°C 89% 1.2 mph SW1.9 kmh SW 3.5 mph5.6 kmh 29.93 in1013.5 mb - 0.00 in0.0 mm 0.00 in0.0 mm
06:00 AM 65.6°F18.7°C 62.6°F17.0°C 90% 4.6 mph WSW7.4 kmh WSW 5.8 mph9.3 kmh 29.93 in1013.5 mb - 0.00 in0.0 mm 0.00 in0.0 mm
05:50 AM 65.1°F18.4°C 62.4°F16.9°C 91% 2.3 mph WSW3.7 kmh WSW 4.6 mph7.4 kmh 29.93 in1013.5 mb - 0.00 in0.0 mm 0.00 in0.0 mm
05:40 AM 64.7°F18.2°C 62.0°F16.7°C 91% Calm Calm 1.2 mph1.9 kmh 29.93 in1013.5 mb - 0.00 in0.0 mm 0.00 in0.0 mm
05:30 AM 64.3°F17.9°C 62.0°F16.7°C 92% 1.2 mph SW1.9 kmh SW 3.5 mph5.6 kmh 29.93 in1013.5 mb - 0.00 in0.0 mm 0.00 in0.0 mm
05:20 AM 63.7°F17.6°C 61.3°F16.3°C 92% Calm Calm 3.5 mph5.6 kmh 29.93 in1013.5 mb - 0.00 in0.0 mm 0.00 in0.0 mm
05:10 AM 63.2°F17.3°C 60.5°F15.8°C 91% Calm Calm 1.2 mph1.9 kmh 29.93 in1013.5 mb - 0.00 in0.0 mm 0.00 in0.0 mm
05:00 AM 63.0°F17.2°C 60.3°F15.7°C 91% Calm Calm -- 29.93 in1013.5 mb - 0.00 in0.0 mm 0.00 in0.0 mm
04:50 AM 63.0°F17.2°C 60.3°F15.7°C 91% Calm Calm 1.2 mph1.9 kmh 29.93 in1013.5 mb - 0.00 in0.0 mm 0.00 in0.0 mm
04:40 AM 63.1°F17.3°C 60.4°F15.8°C 91% Calm Calm 1.2 mph1.9 kmh 29.93 in1013.5 mb - 0.00 in0.0 mm 0.00 in0.0 mm
04:30 AM 63.0°F17.2°C 60.0°F15.6°C 90% Calm Calm 2.3 mph3.7 kmh 29.93 in1013.5 mb - 0.00 in0.0 mm 0.00 in0.0 mm
04:20 AM 63.0°F17.2°C 60.0°F15.6°C 90% Calm Calm 1.2 mph1.9 kmh 29.93 in1013.5 mb - 0.00 in0.0 mm 0.00 in0.0 mm
04:10 AM 63.1°F17.3°C 60.1°F15.6°C 90% Calm Calm 1.2 mph1.9 kmh 29.93 in1013.5 mb - 0.00 in0.0 mm 0.00 in0.0 mm
04:00 AM 63.2°F17.3°C 60.2°F15.7°C 90% Calm Calm 2.3 mph3.7 kmh 29.93 in1013.5 mb - 0.00 in0.0 mm 0.00 in0.0 mm
03:50 AM 63.3°F17.4°C 60.3°F15.7°C 90% Calm Calm 1.2 mph1.9 kmh 29.93 in1013.5 mb - 0.00 in0.0 mm 0.00 in0.0 mm
03:40 AM 63.4°F17.4°C 60.4°F15.8°C 90% Calm Calm -- 29.94 in1013.9 mb - 0.00 in0.0 mm 0.00 in0.0 mm
03:30 AM 63.6°F17.6°C 60.3°F15.7°C 89% Calm Calm -- 29.94 in1013.9 mb - 0.00 in0.0 mm 0.00 in0.0 mm
03:20 AM 63.8°F17.7°C 60.5°F15.8°C 89% Calm Calm -- 29.93 in1013.5 mb - 0.00 in0.0 mm 0.00 in0.0 mm
03:10 AM 63.9°F17.7°C 60.6°F15.9°C 89% Calm Calm -- 29.94 in1013.9 mb - 0.00 in0.0 mm 0.00 in0.0 mm
03:00 AM 64.1°F17.8°C 60.5°F15.8°C 88% 1.2 mph S1.9 kmh S 3.5 mph5.6 kmh 29.94 in1013.9 mb - 0.00 in0.0 mm 0.00 in0.0 mm
02:50 AM 64.3°F17.9°C 60.7°F15.9°C 88% 1.2 mph S1.9 kmh S 2.3 mph3.7 kmh 29.94 in1013.9 mb - 0.00 in0.0 mm 0.00 in0.0 mm
02:40 AM 64.5°F18.1°C 60.9°F16.1°C 88% Calm Calm 1.2 mph1.9 kmh 29.94 in1013.9 mb - 0.00 in0.0 mm 0.00 in0.0 mm
02:30 AM 64.6°F18.1°C 61.0°F16.1°C 88% Calm Calm 3.5 mph5.6 kmh 29.94 in1013.9 mb - 0.00 in0.0 mm 0.00 in0.0 mm
02:20 AM 64.8°F18.2°C 60.8°F16.0°C 87% Calm Calm 2.3 mph3.7 kmh 29.94 in1013.9 mb - 0.00 in0.0 mm 0.00 in0.0 mm
02:10 AM 64.9°F18.3°C 60.9°F16.1°C 87% 1.2 mph S1.9 kmh S 3.5 mph5.6 kmh 29.94 in1013.9 mb - 0.00 in0.0 mm 0.00 in0.0 mm
02:00 AM 65.0°F18.3°C 61.0°F16.1°C 87% 1.2 mph SSW1.9 kmh SSW 3.5 mph5.6 kmh 29.94 in1013.9 mb - 0.00 in0.0 mm 0.00 in0.0 mm
01:50 AM 65.0°F18.3°C 61.0°F16.1°C 87% 1.2 mph SW1.9 kmh SW 5.8 mph9.3 kmh 29.94 in1013.9 mb - 0.00 in0.0 mm 0.00 in0.0 mm
01:40 AM 65.0°F18.3°C 61.0°F16.1°C 87% 2.3 mph SW3.7 kmh SW 3.5 mph5.6 kmh 29.94 in1013.9 mb - 0.00 in0.0 mm 0.00 in0.0 mm
01:30 AM 65.2°F18.4°C 61.2°F16.2°C 87% 3.5 mph SW5.6 kmh SW 3.5 mph5.6 kmh 29.94 in1013.9 mb - 0.00 in0.0 mm 0.00 in0.0 mm
01:20 AM 65.3°F18.5°C 61.0°F16.1°C 86% 3.5 mph W5.6 kmh W 4.6 mph7.4 kmh 29.94 in1013.9 mb - 0.00 in0.0 mm 0.00 in0.0 mm
01:10 AM 65.5°F18.6°C 61.2°F16.2°C 86% 5.8 mph WSW9.3 kmh WSW 9.2 mph14.8 kmh 29.95 in1014.2 mb - 0.00 in0.0 mm 0.00 in0.0 mm
01:00 AM 65.7°F18.7°C 61.1°F16.2°C 85% 3.5 mph WSW5.6 kmh WSW 3.5 mph5.6 kmh 29.95 in1014.2 mb - 0.00 in0.0 mm 0.00 in0.0 mm
12:50 AM 66.0°F18.9°C 61.4°F16.3°C 85% 2.3 mph WSW3.7 kmh WSW 4.6 mph7.4 kmh 29.95 in1014.2 mb - 0.00 in0.0 mm 0.00 in0.0 mm
12:40 AM 66.3°F19.1°C 61.7°F16.5°C 85% 3.5 mph WSW5.6 kmh WSW 4.6 mph7.4 kmh 29.95 in1014.2 mb - 0.00 in0.0 mm 0.00 in0.0 mm
12:30 AM 66.5°F19.2°C 61.5°F16.4°C 84% 2.3 mph WSW3.7 kmh WSW 4.6 mph7.4 kmh 29.95 in1014.2 mb - 0.00 in0.0 mm 0.00 in0.0 mm
12:20 AM 66.8°F19.3°C 61.8°F16.6°C 84% 3.5 mph WSW5.6 kmh WSW 3.5 mph5.6 kmh 29.95 in1014.2 mb - 0.00 in0.0 mm 0.00 in0.0 mm
12:10 AM 67.0°F19.4°C 62.0°F16.7°C 84% 2.3 mph SW3.7 kmh SW 4.6 mph7.4 kmh 29.95 in1014.2 mb - 0.00 in0.0 mm 0.00 in0.0 mm
12:00 AM 67.2°F19.6°C 61.9°F16.6°C 83% 3.5 mph WSW5.6 kmh WSW 3.5 mph5.6 kmh 29.94 in1013.9 mb - 0.00 in0.0 mm 0.00 in0.0 mm